sensor_id;sensor_type;location;lat;lon;timestamp;pressure;altitude;pressure_sealevel;temperature;humidity
72414;BME280;60995;52.154;4.498;2023-07-31T00:00:50;100844.22;;;18.33;100.00
72414;BME280;60995;52.154;4.498;2023-07-31T00:03:06;100779.75;;;18.29;100.00
72414;BME280;60995;52.154;4.498;2023-07-31T00:05:22;100781.53;;;18.37;100.00
72414;BME280;60995;52.154;4.498;2023-07-31T00:07:39;100790.78;;;18.21;100.00
72414;BME280;60995;52.154;4.498;2023-07-31T00:09:55;100741.19;;;18.23;100.00
72414;BME280;60995;52.154;4.498;2023-07-31T00:12:12;100767.22;;;18.12;100.00
72414;BME280;60995;52.154;4.498;2023-07-31T00:14:29;100796.78;;;18.10;100.00
72414;BME280;60995;52.154;4.498;2023-07-31T00:16:45;100779.53;;;18.01;100.00
72414;BME280;60995;52.154;4.498;2023-07-31T00:19:01;100806.00;;;17.94;100.00
72414;BME280;60995;52.154;4.498;2023-07-31T00:21:17;100830.84;;;18.00;100.00
72414;BME280;60995;52.154;4.498;2023-07-31T00:23:33;100825.22;;;17.94;100.00
72414;BME280;60995;52.154;4.498;2023-07-31T00:25:50;100841.88;;;17.92;100.00
72414;BME280;60995;52.154;4.498;2023-07-31T00:28:06;100829.63;;;17.80;100.00
72414;BME280;60995;52.154;4.498;2023-07-31T00:30:22;100805.97;;;17.79;100.00
72414;BME280;60995;52.154;4.498;2023-07-31T00:32:41;100799.84;;;17.92;100.00
72414;BME280;60995;52.154;4.498;2023-07-31T00:34:57;100820.22;;;17.97;100.00
72414;BME280;60995;52.154;4.498;2023-07-31T00:37:13;100820.63;;;17.94;100.00
72414;BME280;60995;52.154;4.498;2023-07-31T00:39:31;100838.03;;;18.01;100.00
72414;BME280;60995;52.154;4.498;2023-07-31T00:41:47;100847.13;;;18.02;100.00
72414;BME280;60995;52.154;4.498;2023-07-31T00:44:03;100857.94;;;18.04;100.00
72414;BME280;60995;52.154;4.498;2023-07-31T00:46:20;100871.56;;;18.12;100.00
72414;BME280;60995;52.154;4.498;2023-07-31T00:48:37;100877.81;;;18.06;100.00
72414;BME280;60995;52.154;4.498;2023-07-31T00:50:55;100873.28;;;18.13;100.00
72414;BME280;60995;52.154;4.498;2023-07-31T00:53:11;100842.69;;;18.16;100.00
72414;BME280;60995;52.154;4.498;2023-07-31T00:55:29;100855.66;;;18.22;100.00
72414;BME280;60995;52.154;4.498;2023-07-31T00:57:48;100872.16;;;18.22;100.00
72414;BME280;60995;52.154;4.498;2023-07-31T01:00:05;100883.63;;;18.26;100.00
72414;BME280;60995;52.154;4.498;2023-07-31T01:02:22;100881.72;;;18.26;100.00
72414;BME280;60995;52.154;4.498;2023-07-31T01:04:39;100907.41;;;18.33;100.00
72414;BME280;60995;52.154;4.498;2023-07-31T01:10:08;100907.31;;;18.27;100.00
72414;BME280;60995;52.154;4.498;2023-07-31T01:12:33;100894.84;;;18.16;100.00
72414;BME280;60995;52.154;4.498;2023-07-31T01:14:51;100902.53;;;18.06;100.00
72414;BME280;60995;52.154;4.498;2023-07-31T01:17:17;100896.47;;;18.10;100.00
72414;BME280;60995;52.154;4.498;2023-07-31T01:19:33;100908.31;;;18.11;100.00
72414;BME280;60995;52.154;4.498;2023-07-31T01:27:21;100979.72;;;18.11;100.00
72414;BME280;60995;52.154;4.498;2023-07-31T01:32:02;100970.06;;;18.15;100.00
72414;BME280;60995;52.154;4.498;2023-07-31T01:34:20;100977.25;;;18.16;100.00
72414;BME280;60995;52.154;4.498;2023-07-31T01:36:38;100967.50;;;18.13;100.00
72414;BME280;60995;52.154;4.498;2023-07-31T01:39:01;100966.75;;;18.19;100.00
72414;BME280;60995;52.154;4.498;2023-07-31T01:41:18;100953.63;;;18.30;100.00
72414;BME280;60995;52.154;4.498;2023-07-31T01:43:34;100938.25;;;18.21;100.00
72414;BME280;60995;52.154;4.498;2023-07-31T01:45:51;100947.34;;;18.21;100.00
72414;BME280;60995;52.154;4.498;2023-07-31T01:48:07;100928.59;;;18.25;100.00
72414;BME280;60995;52.154;4.498;2023-07-31T01:50:23;100928.41;;;18.26;100.00
72414;BME280;60995;52.154;4.498;2023-07-31T01:52:39;100930.28;;;18.11;100.00
72414;BME280;60995;52.154;4.498;2023-07-31T01:54:55;100917.22;;;18.13;100.00
72414;BME280;60995;52.154;4.498;2023-07-31T01:57:12;100917.81;;;18.23;100.00
72414;BME280;60995;52.154;4.498;2023-07-31T01:59:28;100898.66;;;18.15;100.00
72414;BME280;60995;52.154;4.498;2023-07-31T02:01:44;100895.44;;;18.26;100.00
72414;BME280;60995;52.154;4.498;2023-07-31T02:04:01;100888.63;;;18.22;100.00
72414;BME280;60995;52.154;4.498;2023-07-31T02:06:17;100877.84;;;18.21;100.00
72414;BME280;60995;52.154;4.498;2023-07-31T02:08:33;100869.69;;;18.27;100.00
72414;BME280;60995;52.154;4.498;2023-07-31T02:10:49;100866.00;;;18.20;100.00
72414;BME280;60995;52.154;4.498;2023-07-31T02:13:06;100854.09;;;18.28;100.00
72414;BME280;60995;52.154;4.498;2023-07-31T02:15:22;100863.56;;;18.25;100.00
72414;BME280;60995;52.154;4.498;2023-07-31T02:17:38;100845.66;;;18.29;100.00
72414;BME280;60995;52.154;4.498;2023-07-31T02:19:55;100853.22;;;18.27;100.00
72414;BME280;60995;52.154;4.498;2023-07-31T02:22:11;100848.59;;;18.28;100.00
72414;BME280;60995;52.154;4.498;2023-07-31T02:24:28;100845.66;;;18.29;100.00
72414;BME280;60995;52.154;4.498;2023-07-31T02:26:44;100842.91;;;18.29;100.00
72414;BME280;60995;52.154;4.498;2023-07-31T02:29:00;100836.19;;;18.32;100.00
72414;BME280;60995;52.154;4.498;2023-07-31T02:31:16;100827.94;;;18.32;100.00
72414;BME280;60995;52.154;4.498;2023-07-31T02:33:33;100837.03;;;18.32;100.00
72414;BME280;60995;52.154;4.498;2023-07-31T02:35:49;100817.44;;;18.35;100.00
72414;BME280;60995;52.154;4.498;2023-07-31T02:38:05;100824.91;;;18.42;100.00
72414;BME280;60995;52.154;4.498;2023-07-31T02:40:21;100806.81;;;18.32;100.00
72414;BME280;60995;52.154;4.498;2023-07-31T02:42:38;100811.06;;;18.35;100.00
72414;BME280;60995;52.154;4.498;2023-07-31T02:44:54;100801.69;;;18.44;100.00
72414;BME280;60995;52.154;4.498;2023-07-31T02:47:11;100803.31;;;18.39;100.00
72414;BME280;60995;52.154;4.498;2023-07-31T02:49:28;100784.00;;;18.32;100.00
72414;BME280;60995;52.154;4.498;2023-07-31T02:51:44;100789.19;;;18.42;100.00
72414;BME280;60995;52.154;4.498;2023-07-31T02:54:00;100784.84;;;18.32;100.00
72414;BME280;60995;52.154;4.498;2023-07-31T02:56:16;100777.44;;;18.48;100.00
72414;BME280;60995;52.154;4.498;2023-07-31T02:58:33;100773.38;;;18.29;100.00
72414;BME280;60995;52.154;4.498;2023-07-31T03:00:49;100765.50;;;18.41;100.00
72414;BME280;60995;52.154;4.498;2023-07-31T03:03:09;100762.19;;;18.45;100.00
72414;BME280;60995;52.154;4.498;2023-07-31T03:05:26;100764.19;;;18.51;100.00
72414;BME280;60995;52.154;4.498;2023-07-31T03:07:42;100747.50;;;18.53;100.00
72414;BME280;60995;52.154;4.498;2023-07-31T03:09:58;100756.31;;;18.48;100.00
72414;BME280;60995;52.154;4.498;2023-07-31T03:12:15;100747.41;;;18.46;100.00
72414;BME280;60995;52.154;4.498;2023-07-31T03:14:31;100744.75;;;18.38;100.00
72414;BME280;60995;52.154;4.498;2023-07-31T03:16:48;100745.78;;;18.52;100.00
72414;BME280;60995;52.154;4.498;2023-07-31T03:19:05;100739.38;;;18.45;100.00
72414;BME280;60995;52.154;4.498;2023-07-31T03:21:21;100737.53;;;18.52;100.00
72414;BME280;60995;52.154;4.498;2023-07-31T03:23:37;100736.44;;;18.46;100.00
72414;BME280;60995;52.154;4.498;2023-07-31T03:25:58;100731.63;;;18.33;100.00
72414;BME280;60995;52.154;4.498;2023-07-31T03:28:16;100739.00;;;18.18;100.00
72414;BME280;60995;52.154;4.498;2023-07-31T03:30:35;100740.63;;;18.12;100.00
72414;BME280;60995;52.154;4.498;2023-07-31T03:32:54;100746.69;;;18.08;100.00
72414;BME280;60995;52.154;4.498;2023-07-31T03:35:10;100748.84;;;17.97;100.00
72414;BME280;60995;52.154;4.498;2023-07-31T03:37:26;100744.41;;;17.96;100.00
72414;BME280;60995;52.154;4.498;2023-07-31T03:39:42;100737.88;;;17.97;100.00
72414;BME280;60995;52.154;4.498;2023-07-31T03:41:59;100746.41;;;18.02;100.00
72414;BME280;60995;52.154;4.498;2023-07-31T03:44:15;100740.91;;;18.02;100.00
72414;BME280;60995;52.154;4.498;2023-07-31T03:46:31;100746.41;;;18.02;100.00
72414;BME280;60995;52.154;4.498;2023-07-31T03:48:48;100739.59;;;17.98;100.00
72414;BME280;60995;52.154;4.498;2023-07-31T03:51:04;100740.44;;;17.99;100.00
72414;BME280;60995;52.154;4.498;2023-07-31T03:53:21;100739.69;;;18.05;100.00
72414;BME280;60995;52.154;4.498;2023-07-31T03:55:37;100743.66;;;18.02;100.00
72414;BME280;60995;52.154;4.498;2023-07-31T03:57:53;100741.31;;;17.99;100.00
72414;BME280;60995;52.154;4.498;2023-07-31T04:00:10;100734.78;;;18.00;100.00
72414;BME280;60995;52.154;4.498;2023-07-31T04:02:27;100753.50;;;17.97;100.00
72414;BME280;60995;52.154;4.498;2023-07-31T04:04:43;100748.22;;;17.95;100.00
72414;BME280;60995;52.154;4.498;2023-07-31T04:06:59;100745.97;;;17.91;100.00
72414;BME280;60995;52.154;4.498;2023-07-31T04:09:15;100750.28;;;17.93;100.00
72414;BME280;60995;52.154;4.498;2023-07-31T04:11:31;100752.81;;;17.95;100.00
72414;BME280;60995;52.154;4.498;2023-07-31T04:13:48;100748.91;;;17.89;100.00
72414;BME280;60995;52.154;4.498;2023-07-31T04:16:04;100752.22;;;17.84;100.00
72414;BME280;60995;52.154;4.498;2023-07-31T04:18:24;100745.34;;;17.89;100.00
72414;BME280;60995;52.154;4.498;2023-07-31T04:20:40;100746.19;;;17.89;100.00
72414;BME280;60995;52.154;4.498;2023-07-31T04:22:57;100746.56;;;17.86;100.00
72414;BME280;60995;52.154;4.498;2023-07-31T04:25:13;100742.94;;;17.85;100.00
72414;BME280;60995;52.154;4.498;2023-07-31T04:27:29;100749.75;;;17.90;100.00
72414;BME280;60995;52.154;4.498;2023-07-31T04:29:46;100746.72;;;17.84;100.00
72414;BME280;60995;52.154;4.498;2023-07-31T04:32:03;100730.75;;;17.88;100.00
72414;BME280;60995;52.154;4.498;2023-07-31T04:34:20;100729.31;;;17.92;100.00
72414;BME280;60995;52.154;4.498;2023-07-31T04:36:36;100727.09;;;17.96;100.00
72414;BME280;60995;52.154;4.498;2023-07-31T04:38:52;100721.34;;;18.06;100.00
72414;BME280;60995;52.154;4.498;2023-07-31T04:41:08;100732.97;;;18.08;100.00
72414;BME280;60995;52.154;4.498;2023-07-31T04:43:25;100737.88;;;17.97;100.00
72414;BME280;60995;52.154;4.498;2023-07-31T04:45:47;100737.88;;;17.97;100.00
72414;BME280;60995;52.154;4.498;2023-07-31T04:48:04;100745.06;;;17.83;100.00
72414;BME280;60995;52.154;4.498;2023-07-31T04:50:21;100736.81;;;17.83;100.00
72414;BME280;60995;52.154;4.498;2023-07-31T04:52:37;100738.13;;;17.88;100.00
72414;BME280;60995;52.154;4.498;2023-07-31T04:54:53;100746.19;;;17.89;100.00
72414;BME280;60995;52.154;4.498;2023-07-31T04:57:09;100753.38;;;17.90;100.00
72414;BME280;60995;52.154;4.498;2023-07-31T04:59:26;100758.50;;;17.93;100.00
72414;BME280;60995;52.154;4.498;2023-07-31T05:01:42;100763.63;;;17.96;100.00
72414;BME280;60995;52.154;4.498;2023-07-31T05:03:59;100767.03;;;17.98;100.00
72414;BME280;60995;52.154;4.498;2023-07-31T05:06:15;100649.06;;;17.90;100.00
72414;BME280;60995;52.154;4.498;2023-07-31T05:08:31;100571.16;;;17.91;100.00
72414;BME280;60995;52.154;4.498;2023-07-31T05:10:48;100517.34;;;17.90;100.00
72414;BME280;60995;52.154;4.498;2023-07-31T05:13:05;100506.34;;;17.90;100.00
72414;BME280;60995;52.154;4.498;2023-07-31T05:15:21;100483.63;;;17.96;100.00
72414;BME280;60995;52.154;4.498;2023-07-31T05:17:38;100461.31;;;17.84;100.00
72414;BME280;60995;52.154;4.498;2023-07-31T05:19:54;100512.13;;;17.80;100.00
72414;BME280;60995;52.154;4.498;2023-07-31T05:22:10;100501.50;;;17.71;100.00
72414;BME280;60995;52.154;4.498;2023-07-31T05:24:26;100494.97;;;17.57;100.00
72414;BME280;60995;52.154;4.498;2023-07-31T05:26:43;100467.06;;;17.53;100.00
72414;BME280;60995;52.154;4.498;2023-07-31T05:28:59;100471.53;;;17.54;100.00
72414;BME280;60995;52.154;4.498;2023-07-31T05:31:15;100469.63;;;17.55;100.00
72414;BME280;60995;52.154;4.498;2023-07-31T05:33:31;100476.75;;;17.49;100.00
72414;BME280;60995;52.154;4.498;2023-07-31T05:35:48;100478.91;;;17.53;100.00
72414;BME280;60995;52.154;4.498;2023-07-31T05:38:04;100494.97;;;17.57;100.00
72414;BME280;60995;52.154;4.498;2023-07-31T05:40:20;100506.78;;;17.57;100.00
72414;BME280;60995;52.154;4.498;2023-07-31T05:42:36;100521.56;;;17.56;100.00
72414;BME280;60995;52.154;4.498;2023-07-31T05:44:54;100486.94;;;17.55;100.00
72414;BME280;60995;52.154;4.498;2023-07-31T05:47:10;100490.25;;;17.50;100.00
72414;BME280;60995;52.154;4.498;2023-07-31T05:49:26;100532.16;;;17.59;100.00
72414;BME280;60995;52.154;4.498;2023-07-31T05:51:43;100558.75;;;17.59;100.00
72414;BME280;60995;52.154;4.498;2023-07-31T05:53:59;100581.53;;;17.59;100.00
72414;BME280;60995;52.154;4.498;2023-07-31T05:56:15;100591.91;;;17.79;100.00
72414;BME280;60995;52.154;4.498;2023-07-31T05:58:31;100624.28;;;17.68;100.00
72414;BME280;60995;52.154;4.498;2023-07-31T06:00:48;100635.63;;;17.80;100.00
72414;BME280;60995;52.154;4.498;2023-07-31T06:03:04;100715.22;;;17.80;100.00
72414;BME280;60995;52.154;4.498;2023-07-31T06:05:20;100757.59;;;17.78;100.00
72414;BME280;60995;52.154;4.498;2023-07-31T06:07:37;100764.72;;;17.87;100.00
72414;BME280;60995;52.154;4.498;2023-07-31T06:09:53;100757.47;;;17.94;100.00
72414;BME280;60995;52.154;4.498;2023-07-31T06:12:10;100754.22;;;17.91;100.00
72414;BME280;60995;52.154;4.498;2023-07-31T06:14:27;100760.72;;;17.98;100.00
72414;BME280;60995;52.154;4.498;2023-07-31T06:16:44;100759.09;;;18.04;100.00
72414;BME280;60995;52.154;4.498;2023-07-31T06:19:00;100752.91;;;18.01;100.00
72414;BME280;60995;52.154;4.498;2023-07-31T06:21:17;100755.50;;;18.03;100.00
72414;BME280;60995;52.154;4.498;2023-07-31T06:23:33;100764.47;;;18.12;100.00
72414;BME280;60995;52.154;4.498;2023-07-31T06:25:49;100750.19;;;18.16;100.00
72414;BME280;60995;52.154;4.498;2023-07-31T06:28:05;100748.28;;;18.17;100.00
72414;BME280;60995;52.154;4.498;2023-07-31T06:30:22;100739.25;;;18.38;100.00
72414;BME280;60995;52.154;4.498;2023-07-31T06:32:38;100729.00;;;18.25;100.00
72414;BME280;60995;52.154;4.498;2023-07-31T06:34:56;100713.72;;;18.38;100.00
72414;BME280;60995;52.154;4.498;2023-07-31T06:37:12;100715.91;;;18.27;100.00
72414;BME280;60995;52.154;4.498;2023-07-31T06:39:29;100713.16;;;18.27;100.00
72414;BME280;60995;52.154;4.498;2023-07-31T06:41:45;100718.56;;;18.35;100.00
72414;BME280;60995;52.154;4.498;2023-07-31T06:44:01;100707.72;;;18.49;100.00
72414;BME280;60995;52.154;4.498;2023-07-31T06:46:17;100711.50;;;18.48;100.00
72414;BME280;60995;52.154;4.498;2023-07-31T06:48:34;100696.19;;;18.39;100.00
72414;BME280;60995;52.154;4.498;2023-07-31T06:50:50;100708.28;;;18.44;100.00
72414;BME280;60995;52.154;4.498;2023-07-31T06:53:06;100711.09;;;18.51;100.00
72414;BME280;60995;52.154;4.498;2023-07-31T06:55:23;100704.78;;;18.50;100.00
72414;BME280;60995;52.154;4.498;2023-07-31T06:57:40;100699.28;;;18.50;100.00
72414;BME280;60995;52.154;4.498;2023-07-31T06:59:56;100699.16;;;18.59;100.00
72414;BME280;60995;52.154;4.498;2023-07-31T07:02:13;100706.50;;;18.51;100.00
72414;BME280;60995;52.154;4.498;2023-07-31T07:04:35;100695.88;;;18.48;100.00
72414;BME280;60995;52.154;4.498;2023-07-31T07:06:51;100701.47;;;18.55;100.00
72414;BME280;60995;52.154;4.498;2023-07-31T07:09:08;100699.69;;;18.47;100.00
72414;BME280;60995;52.154;4.498;2023-07-31T07:11:24;100703.75;;;18.51;100.00
72414;BME280;60995;52.154;4.498;2023-07-31T07:13:40;100706.09;;;18.55;100.00
72414;BME280;60995;52.154;4.498;2023-07-31T07:15:57;100705.53;;;18.59;100.00
72414;BME280;60995;52.154;4.498;2023-07-31T07:18:13;100700.94;;;18.66;100.00
72414;BME280;60995;52.154;4.498;2023-07-31T07:20:29;100695.06;;;18.70;100.00
72414;BME280;60995;52.154;4.498;2023-07-31T07:22:46;100712.88;;;18.74;100.00
72414;BME280;60995;52.154;4.498;2023-07-31T07:25:04;100706.69;;;18.72;100.00
72414;BME280;60995;52.154;4.498;2023-07-31T07:27:23;100722.59;;;18.91;100.00
72414;BME280;60995;52.154;4.498;2023-07-31T07:29:39;100719.94;;;18.83;100.00
72414;BME280;60995;52.154;4.498;2023-07-31T07:31:55;100715.22;;;18.77;100.00
72414;BME280;60995;52.154;4.498;2023-07-31T07:34:11;100708.88;;;18.76;100.00
72414;BME280;60995;52.154;4.498;2023-07-31T07:36:28;100725.16;;;18.78;100.00
72414;BME280;60995;52.154;4.498;2023-07-31T07:38:44;100689.38;;;18.71;100.00
72414;BME280;60995;52.154;4.498;2023-07-31T07:41:00;100686.88;;;18.76;100.00
72414;BME280;60995;52.154;4.498;2023-07-31T07:43:17;100704.06;;;19.00;100.00
72414;BME280;60995;52.154;4.498;2023-07-31T07:45:33;100690.16;;;18.87;100.00
72414;BME280;60995;52.154;4.498;2023-07-31T07:47:49;100633.84;;;18.97;100.00
72414;BME280;60995;52.154;4.498;2023-07-31T07:50:06;100665.16;;;19.03;100.00
72414;BME280;60995;52.154;4.498;2023-07-31T07:52:23;100680.41;;;19.06;100.00
72414;BME280;60995;52.154;4.498;2023-07-31T07:54:39;100694.38;;;19.04;100.00
72414;BME280;60995;52.154;4.498;2023-07-31T07:56:55;100687.22;;;19.10;100.00
72414;BME280;60995;52.154;4.498;2023-07-31T07:59:11;100682.75;;;19.02;100.00
72414;BME280;60995;52.154;4.498;2023-07-31T08:01:28;100690.19;;;19.08;100.00
72414;BME280;60995;52.154;4.498;2023-07-31T08:03:44;100683.44;;;19.11;100.00
72414;BME280;60995;52.154;4.498;2023-07-31T08:06:01;100699.94;;;19.11;100.00
72414;BME280;60995;52.154;4.498;2023-07-31T08:08:17;100681.41;;;19.20;100.00
72414;BME280;60995;52.154;4.498;2023-07-31T08:10:35;100691.22;;;19.29;100.00
72414;BME280;60995;52.154;4.498;2023-07-31T08:12:51;100697.56;;;19.29;100.00
72414;BME280;60995;52.154;4.498;2023-07-31T08:15:07;100695.47;;;19.31;100.00
72414;BME280;60995;52.154;4.498;2023-07-31T08:17:24;100419.56;;;19.38;100.00
72414;BME280;60995;52.154;4.498;2023-07-31T08:19:40;100534.69;;;19.41;100.00
72414;BME280;60995;52.154;4.498;2023-07-31T08:21:57;100507.56;;;19.31;100.00
72414;BME280;60995;52.154;4.498;2023-07-31T08:24:13;100610.59;;;19.28;100.00
72414;BME280;60995;52.154;4.498;2023-07-31T08:26:29;100601.84;;;19.18;100.00
72414;BME280;60995;52.154;4.498;2023-07-31T08:28:45;100631.47;;;19.23;100.00
72414;BME280;60995;52.154;4.498;2023-07-31T08:31:02;100650.09;;;19.21;100.00
72414;BME280;60995;52.154;4.498;2023-07-31T08:33:18;100668.38;;;19.28;100.00
72414;BME280;60995;52.154;4.498;2023-07-31T08:35:34;100664.94;;;19.26;100.00
72414;BME280;60995;52.154;4.498;2023-07-31T08:37:51;100670.28;;;19.34;100.00
72414;BME280;60995;52.154;4.498;2023-07-31T08:40:07;100668.00;;;19.38;100.00
72414;BME280;60995;52.154;4.498;2023-07-31T08:42:24;100660.91;;;19.50;100.00
72414;BME280;60995;52.154;4.498;2023-07-31T08:44:41;100641.19;;;19.47;100.00
72414;BME280;60995;52.154;4.498;2023-07-31T08:46:59;100633.91;;;19.67;100.00
72414;BME280;60995;52.154;4.498;2023-07-31T08:49:17;100626.72;;;19.66;100.00
72414;BME280;60995;52.154;4.498;2023-07-31T08:51:36;100631.41;;;19.73;100.00
72414;BME280;60995;52.154;4.498;2023-07-31T08:53:53;100644.03;;;19.60;100.00
72414;BME280;60995;52.154;4.498;2023-07-31T08:56:11;100629.44;;;19.60;100.00
72414;BME280;60995;52.154;4.498;2023-07-31T08:58:32;100623.25;;;19.58;100.00
72414;BME280;60995;52.154;4.498;2023-07-31T09:00:52;100608.63;;;19.86;100.00
72414;BME280;60995;52.154;4.498;2023-07-31T09:03:16;100620.06;;;19.89;100.00
72414;BME280;60995;52.154;4.498;2023-07-31T09:05:35;100611.56;;;19.84;100.00
72414;BME280;60995;52.154;4.498;2023-07-31T09:07:53;100621.75;;;19.55;100.00
72414;BME280;60995;52.154;4.498;2023-07-31T09:10:11;100625.06;;;19.79;100.00
72414;BME280;60995;52.154;4.498;2023-07-31T09:12:28;100613.94;;;19.87;100.00
72414;BME280;60995;52.154;4.498;2023-07-31T09:14:45;100600.09;;;19.80;100.00
72414;BME280;60995;52.154;4.498;2023-07-31T09:17:03;100593.28;;;19.76;100.00
72414;BME280;60995;52.154;4.498;2023-07-31T09:19:43;100597.97;;;19.76;100.00
72414;BME280;60995;52.154;4.498;2023-07-31T09:22:00;100600.09;;;19.74;100.00
72414;BME280;60995;52.154;4.498;2023-07-31T09:24:29;100593.44;;;19.96;100.00
72414;BME280;60995;52.154;4.498;2023-07-31T09:26:47;100590.66;;;19.96;100.00
72414;BME280;60995;52.154;4.498;2023-07-31T09:29:04;100590.44;;;19.91;100.00
72414;BME280;60995;52.154;4.498;2023-07-31T09:31:39;100587.81;;;20.25;100.00
72414;BME280;60995;52.154;4.498;2023-07-31T09:33:57;100589.69;;;20.17;100.00
72414;BME280;60995;52.154;4.498;2023-07-31T09:36:13;100585.03;;;20.18;100.00
72414;BME280;60995;52.154;4.498;2023-07-31T09:38:30;100579.25;;;20.06;100.00
72414;BME280;60995;52.154;4.498;2023-07-31T09:40:48;100580.84;;;20.49;100.00
72414;BME280;60995;52.154;4.498;2023-07-31T09:43:06;100577.25;;;20.42;100.00
72414;BME280;60995;52.154;4.498;2023-07-31T09:45:24;100576.44;;;20.61;100.00
72414;BME280;60995;52.154;4.498;2023-07-31T09:47:46;100554.56;;;20.46;100.00
72414;BME280;60995;52.154;4.498;2023-07-31T09:50:06;100569.59;;;20.30;100.00
72414;BME280;60995;52.154;4.498;2023-07-31T09:52:26;100548.16;;;20.19;100.00
72414;BME280;60995;52.154;4.498;2023-07-31T09:54:43;100546.16;;;19.86;100.00
72414;BME280;60995;52.154;4.498;2023-07-31T09:57:00;100556.72;;;19.82;100.00
72414;BME280;60995;52.154;4.498;2023-07-31T09:59:20;100569.25;;;19.92;100.00
72414;BME280;60995;52.154;4.498;2023-07-31T10:01:37;100573.56;;;20.14;100.00
72414;BME280;60995;52.154;4.498;2023-07-31T10:03:55;100582.47;;;20.23;100.00
72414;BME280;60995;52.154;4.498;2023-07-31T10:06:13;100595.63;;;20.14;100.00
72414;BME280;60995;52.154;4.498;2023-07-31T10:08:34;100579.88;;;19.95;100.00
72414;BME280;60995;52.154;4.498;2023-07-31T10:10:52;100591.81;;;20.22;100.00
72414;BME280;60995;52.154;4.498;2023-07-31T10:13:09;100591.44;;;20.45;100.00
72414;BME280;60995;52.154;4.498;2023-07-31T10:15:27;100586.84;;;20.73;100.00
72414;BME280;60995;52.154;4.498;2023-07-31T10:17:47;100583.25;;;21.06;100.00
72414;BME280;60995;52.154;4.498;2023-07-31T10:20:05;100545.41;;;21.40;100.00
72414;BME280;60995;52.154;4.498;2023-07-31T10:22:23;100541.34;;;21.56;100.00
72414;BME280;60995;52.154;4.498;2023-07-31T10:24:42;100513.28;;;21.52;100.00
72414;BME280;60995;52.154;4.498;2023-07-31T10:26:59;100503.84;;;21.28;100.00
72414;BME280;60995;52.154;4.498;2023-07-31T10:29:18;100490.44;;;21.38;100.00
72414;BME280;60995;52.154;4.498;2023-07-31T10:31:36;100491.13;;;21.20;100.00
72414;BME280;60995;52.154;4.498;2023-07-31T10:33:53;100489.25;;;21.01;100.00
72414;BME280;60995;52.154;4.498;2023-07-31T10:36:14;100491.81;;;20.95;100.00
72414;BME280;60995;52.154;4.498;2023-07-31T10:38:33;100488.72;;;21.44;100.00
72414;BME280;60995;52.154;4.498;2023-07-31T10:40:50;100485.22;;;21.69;100.00
72414;BME280;60995;52.154;4.498;2023-07-31T10:43:06;100451.31;;;21.55;100.00
72414;BME280;60995;52.154;4.498;2023-07-31T10:47:49;100468.00;;;21.08;100.00
72414;BME280;60995;52.154;4.498;2023-07-31T10:50:20;100463.59;;;21.07;100.00
72414;BME280;60995;52.154;4.498;2023-07-31T10:52:39;100494.31;;;21.17;100.00
72414;BME280;60995;52.154;4.498;2023-07-31T10:55:26;100480.75;;;21.09;100.00
72414;BME280;60995;52.154;4.498;2023-07-31T10:57:47;100466.16;;;21.60;100.00
72414;BME280;60995;52.154;4.498;2023-07-31T11:02:58;100413.94;;;22.23;100.00
72414;BME280;60995;52.154;4.498;2023-07-31T11:05:41;100409.94;;;22.44;100.00
72414;BME280;60995;52.154;4.498;2023-07-31T11:08:27;100406.91;;;21.95;100.00
72414;BME280;60995;52.154;4.498;2023-07-31T11:10:45;100402.72;;;21.86;100.00
72414;BME280;60995;52.154;4.498;2023-07-31T11:13:06;100412.38;;;21.70;100.00
72414;BME280;60995;52.154;4.498;2023-07-31T11:15:26;100411.38;;;21.57;100.00
72414;BME280;60995;52.154;4.498;2023-07-31T11:17:43;100412.53;;;21.81;100.00
72414;BME280;60995;52.154;4.498;2023-07-31T11:19:59;100413.84;;;22.04;100.00
72414;BME280;60995;52.154;4.498;2023-07-31T11:22:15;100397.44;;;22.35;100.00
72414;BME280;60995;52.154;4.498;2023-07-31T11:24:34;100388.75;;;22.56;100.00
72414;BME280;60995;52.154;4.498;2023-07-31T11:26:53;100360.03;;;22.76;100.00
72414;BME280;60995;52.154;4.498;2023-07-31T11:29:13;100351.97;;;23.30;100.00
72414;BME280;60995;52.154;4.498;2023-07-31T11:31:29;100357.69;;;23.17;100.00
72414;BME280;60995;52.154;4.498;2023-07-31T11:33:46;100336.69;;;22.90;100.00
72414;BME280;60995;52.154;4.498;2023-07-31T11:36:02;100352.97;;;22.61;100.00
72414;BME280;60995;52.154;4.498;2023-07-31T11:38:33;100363.44;;;22.59;100.00
72414;BME280;60995;52.154;4.498;2023-07-31T11:40:50;100370.19;;;22.63;100.00
72414;BME280;60995;52.154;4.498;2023-07-31T11:43:07;100358.56;;;22.55;100.00
72414;BME280;60995;52.154;4.498;2023-07-31T11:45:27;100369.19;;;22.33;100.00
72414;BME280;60995;52.154;4.498;2023-07-31T11:47:44;100384.53;;;22.28;100.00
72414;BME280;60995;52.154;4.498;2023-07-31T11:50:03;100385.59;;;22.53;100.00
72414;BME280;60995;52.154;4.498;2023-07-31T11:52:21;100397.50;;;22.03;100.00
72414;BME280;60995;52.154;4.498;2023-07-31T11:54:40;100409.06;;;21.86;100.00
72414;BME280;60995;52.154;4.498;2023-07-31T11:56:57;100410.91;;;21.67;100.00
72414;BME280;60995;52.154;4.498;2023-07-31T11:59:16;100420.97;;;21.48;100.00
72414;BME280;60995;52.154;4.498;2023-07-31T12:01:33;100423.84;;;21.21;100.00
72414;BME280;60995;52.154;4.498;2023-07-31T12:03:50;100419.13;;;21.28;100.00
72414;BME280;60995;52.154;4.498;2023-07-31T12:06:08;100419.13;;;21.28;100.00